sensor_id;sensor_type;location;lat;lon;timestamp;P1;durP1;ratioP1;P2;durP2;ratioP2
28844;SDS011;15976;47.938;7.758;2023-07-13T00:01:54;4.88;;;1.70;;
28844;SDS011;15976;47.938;7.758;2023-07-13T00:04:22;3.85;;;1.70;;
28844;SDS011;15976;47.938;7.758;2023-07-13T00:06:52;2.80;;;1.65;;
28844;SDS011;15976;47.938;7.758;2023-07-13T00:09:19;4.05;;;1.55;;
28844;SDS011;15976;47.938;7.758;2023-07-13T00:11:53;4.57;;;1.48;;
28844;SDS011;15976;47.938;7.758;2023-07-13T00:14:21;4.28;;;1.40;;
28844;SDS011;15976;47.938;7.758;2023-07-13T00:16:49;6.72;;;1.75;;
28844;SDS011;15976;47.938;7.758;2023-07-13T00:19:16;4.63;;;1.60;;
28844;SDS011;15976;47.938;7.758;2023-07-13T00:21:44;2.75;;;1.58;;
28844;SDS011;15976;47.938;7.758;2023-07-13T00:24:11;4.47;;;1.50;;
28844;SDS011;15976;47.938;7.758;2023-07-13T00:26:41;6.25;;;1.75;;
28844;SDS011;15976;47.938;7.758;2023-07-13T00:29:11;3.65;;;1.80;;
28844;SDS011;15976;47.938;7.758;2023-07-13T00:31:39;3.08;;;1.80;;
28844;SDS011;15976;47.938;7.758;2023-07-13T00:34:06;3.53;;;1.60;;
28844;SDS011;15976;47.938;7.758;2023-07-13T00:36:33;6.05;;;1.80;;
28844;SDS011;15976;47.938;7.758;2023-07-13T00:39:00;3.97;;;1.92;;
28844;SDS011;15976;47.938;7.758;2023-07-13T00:41:29;4.30;;;2.17;;
28844;SDS011;15976;47.938;7.758;2023-07-13T00:43:57;2.55;;;1.52;;
28844;SDS011;15976;47.938;7.758;2023-07-13T00:48:54;6.70;;;1.92;;
28844;SDS011;15976;47.938;7.758;2023-07-13T00:51:29;3.78;;;1.73;;
28844;SDS011;15976;47.938;7.758;2023-07-13T00:54:00;4.15;;;1.88;;
28844;SDS011;15976;47.938;7.758;2023-07-13T00:56:32;5.40;;;1.80;;
28844;SDS011;15976;47.938;7.758;2023-07-13T00:59:01;3.05;;;1.98;;
28844;SDS011;15976;47.938;7.758;2023-07-13T01:01:29;5.18;;;2.00;;
28844;SDS011;15976;47.938;7.758;2023-07-13T01:03:57;2.42;;;1.73;;
28844;SDS011;15976;47.938;7.758;2023-07-13T01:06:25;6.18;;;1.92;;
28844;SDS011;15976;47.938;7.758;2023-07-13T01:08:52;5.78;;;2.22;;
28844;SDS011;15976;47.938;7.758;2023-07-13T01:11:20;2.78;;;1.80;;
28844;SDS011;15976;47.938;7.758;2023-07-13T01:13:51;5.38;;;2.00;;
28844;SDS011;15976;47.938;7.758;2023-07-13T01:16:20;3.08;;;2.05;;
28844;SDS011;15976;47.938;7.758;2023-07-13T01:18:54;7.68;;;2.00;;
28844;SDS011;15976;47.938;7.758;2023-07-13T01:21:24;4.22;;;2.00;;
28844;SDS011;15976;47.938;7.758;2023-07-13T01:23:52;4.32;;;1.83;;
28844;SDS011;15976;47.938;7.758;2023-07-13T01:26:20;5.93;;;2.25;;
28844;SDS011;15976;47.938;7.758;2023-07-13T01:28:47;5.63;;;2.00;;
28844;SDS011;15976;47.938;7.758;2023-07-13T01:31:14;6.43;;;2.10;;
28844;SDS011;15976;47.938;7.758;2023-07-13T01:33:41;4.13;;;2.05;;
28844;SDS011;15976;47.938;7.758;2023-07-13T01:36:09;7.57;;;2.10;;
28844;SDS011;15976;47.938;7.758;2023-07-13T01:38:37;4.22;;;1.90;;
28844;SDS011;15976;47.938;7.758;2023-07-13T01:41:04;3.90;;;2.30;;
28844;SDS011;15976;47.938;7.758;2023-07-13T01:43:31;8.32;;;2.15;;
28844;SDS011;15976;47.938;7.758;2023-07-13T01:45:59;2.75;;;1.90;;
28844;SDS011;15976;47.938;7.758;2023-07-13T01:48:46;3.55;;;2.10;;
28844;SDS011;15976;47.938;7.758;2023-07-13T01:51:13;4.60;;;2.00;;
28844;SDS011;15976;47.938;7.758;2023-07-13T01:53:40;4.75;;;2.30;;
28844;SDS011;15976;47.938;7.758;2023-07-13T01:56:07;5.47;;;2.00;;
28844;SDS011;15976;47.938;7.758;2023-07-13T01:58:34;7.43;;;2.20;;
28844;SDS011;15976;47.938;7.758;2023-07-13T02:01:01;6.90;;;2.20;;
28844;SDS011;15976;47.938;7.758;2023-07-13T02:03:28;6.03;;;2.28;;
28844;SDS011;15976;47.938;7.758;2023-07-13T02:05:57;7.07;;;2.05;;
28844;SDS011;15976;47.938;7.758;2023-07-13T02:08:24;6.30;;;2.25;;
28844;SDS011;15976;47.938;7.758;2023-07-13T02:10:51;8.65;;;1.92;;
28844;SDS011;15976;47.938;7.758;2023-07-13T02:13:18;5.78;;;2.22;;
28844;SDS011;15976;47.938;7.758;2023-07-13T02:15:46;6.70;;;2.10;;
28844;SDS011;15976;47.938;7.758;2023-07-13T02:18:16;3.65;;;1.90;;
28844;SDS011;15976;47.938;7.758;2023-07-13T02:20:44;6.97;;;2.15;;
28844;SDS011;15976;47.938;7.758;2023-07-13T02:23:11;5.07;;;1.90;;
28844;SDS011;15976;47.938;7.758;2023-07-13T02:25:38;5.93;;;2.00;;
28844;SDS011;15976;47.938;7.758;2023-07-13T02:28:07;5.38;;;1.90;;
28844;SDS011;15976;47.938;7.758;2023-07-13T02:30:35;4.03;;;1.95;;
28844;SDS011;15976;47.938;7.758;2023-07-13T02:33:02;4.05;;;2.03;;
28844;SDS011;15976;47.938;7.758;2023-07-13T02:35:29;5.15;;;2.20;;
28844;SDS011;15976;47.938;7.758;2023-07-13T02:37:57;10.15;;;2.22;;
28844;SDS011;15976;47.938;7.758;2023-07-13T02:40:24;3.65;;;1.67;;
28844;SDS011;15976;47.938;7.758;2023-07-13T02:42:52;5.20;;;1.92;;
28844;SDS011;15976;47.938;7.758;2023-07-13T02:45:19;5.30;;;2.00;;
28844;SDS011;15976;47.938;7.758;2023-07-13T02:47:46;3.45;;;2.00;;
28844;SDS011;15976;47.938;7.758;2023-07-13T02:50:13;6.90;;;2.00;;
28844;SDS011;15976;47.938;7.758;2023-07-13T02:52:40;6.40;;;1.92;;
28844;SDS011;15976;47.938;7.758;2023-07-13T02:55:08;5.53;;;1.95;;
28844;SDS011;15976;47.938;7.758;2023-07-13T02:57:35;4.65;;;2.03;;
28844;SDS011;15976;47.938;7.758;2023-07-13T03:00:03;5.85;;;2.05;;
28844;SDS011;15976;47.938;7.758;2023-07-13T03:02:32;4.00;;;1.80;;
28844;SDS011;15976;47.938;7.758;2023-07-13T03:05:00;6.90;;;2.13;;
28844;SDS011;15976;47.938;7.758;2023-07-13T03:07:29;3.50;;;1.88;;
28844;SDS011;15976;47.938;7.758;2023-07-13T03:09:57;2.58;;;1.80;;
28844;SDS011;15976;47.938;7.758;2023-07-13T03:12:34;9.05;;;2.40;;
28844;SDS011;15976;47.938;7.758;2023-07-13T03:15:04;4.78;;;2.15;;
28844;SDS011;15976;47.938;7.758;2023-07-13T03:17:35;7.25;;;2.17;;
28844;SDS011;15976;47.938;7.758;2023-07-13T03:20:02;5.47;;;2.13;;
28844;SDS011;15976;47.938;7.758;2023-07-13T03:22:30;3.33;;;2.05;;
28844;SDS011;15976;47.938;7.758;2023-07-13T03:24:58;4.15;;;1.90;;
28844;SDS011;15976;47.938;7.758;2023-07-13T03:27:25;4.78;;;2.42;;
28844;SDS011;15976;47.938;7.758;2023-07-13T03:29:53;4.38;;;2.10;;
28844;SDS011;15976;47.938;7.758;2023-07-13T03:32:21;6.93;;;2.13;;
28844;SDS011;15976;47.938;7.758;2023-07-13T03:34:48;6.85;;;2.30;;
28844;SDS011;15976;47.938;7.758;2023-07-13T03:37:16;6.97;;;2.42;;
28844;SDS011;15976;47.938;7.758;2023-07-13T03:39:43;5.70;;;1.92;;
28844;SDS011;15976;47.938;7.758;2023-07-13T03:42:11;6.22;;;1.95;;
28844;SDS011;15976;47.938;7.758;2023-07-13T03:44:38;5.35;;;2.13;;
28844;SDS011;15976;47.938;7.758;2023-07-13T03:47:06;6.97;;;2.15;;
28844;SDS011;15976;47.938;7.758;2023-07-13T03:49:36;5.43;;;2.10;;
28844;SDS011;15976;47.938;7.758;2023-07-13T03:52:03;5.10;;;2.40;;
28844;SDS011;15976;47.938;7.758;2023-07-13T03:54:30;4.22;;;2.13;;
28844;SDS011;15976;47.938;7.758;2023-07-13T03:56:59;6.43;;;2.42;;
28844;SDS011;15976;47.938;7.758;2023-07-13T03:59:30;3.92;;;2.05;;
28844;SDS011;15976;47.938;7.758;2023-07-13T04:01:57;7.70;;;2.25;;
28844;SDS011;15976;47.938;7.758;2023-07-13T04:04:24;3.35;;;2.03;;
28844;SDS011;15976;47.938;7.758;2023-07-13T04:06:52;4.03;;;2.15;;
28844;SDS011;15976;47.938;7.758;2023-07-13T04:09:19;6.43;;;2.30;;
28844;SDS011;15976;47.938;7.758;2023-07-13T04:11:47;4.25;;;1.95;;
28844;SDS011;15976;47.938;7.758;2023-07-13T04:14:14;3.90;;;2.20;;
28844;SDS011;15976;47.938;7.758;2023-07-13T04:16:41;5.47;;;2.35;;
28844;SDS011;15976;47.938;7.758;2023-07-13T04:19:09;6.35;;;2.15;;
28844;SDS011;15976;47.938;7.758;2023-07-13T04:21:37;7.90;;;2.30;;
28844;SDS011;15976;47.938;7.758;2023-07-13T04:24:04;4.32;;;2.22;;
28844;SDS011;15976;47.938;7.758;2023-07-13T04:26:31;5.35;;;2.42;;
28844;SDS011;15976;47.938;7.758;2023-07-13T04:29:02;5.00;;;2.00;;
28844;SDS011;15976;47.938;7.758;2023-07-13T04:31:30;4.95;;;2.22;;
28844;SDS011;15976;47.938;7.758;2023-07-13T04:33:58;6.07;;;2.47;;
28844;SDS011;15976;47.938;7.758;2023-07-13T04:36:25;5.47;;;1.85;;
28844;SDS011;15976;47.938;7.758;2023-07-13T04:38:55;4.68;;;2.00;;
28844;SDS011;15976;47.938;7.758;2023-07-13T04:41:22;3.97;;;2.45;;
28844;SDS011;15976;47.938;7.758;2023-07-13T04:43:49;4.32;;;2.13;;
28844;SDS011;15976;47.938;7.758;2023-07-13T04:46:17;6.35;;;2.40;;
28844;SDS011;15976;47.938;7.758;2023-07-13T04:48:46;4.93;;;2.33;;
28844;SDS011;15976;47.938;7.758;2023-07-13T04:51:15;3.47;;;2.30;;
28844;SDS011;15976;47.938;7.758;2023-07-13T04:53:42;7.55;;;2.60;;
28844;SDS011;15976;47.938;7.758;2023-07-13T04:56:09;4.53;;;2.30;;
28844;SDS011;15976;47.938;7.758;2023-07-13T04:58:37;4.32;;;1.90;;
28844;SDS011;15976;47.938;7.758;2023-07-13T05:01:05;3.00;;;2.10;;
28844;SDS011;15976;47.938;7.758;2023-07-13T05:03:33;3.55;;;2.20;;
28844;SDS011;15976;47.938;7.758;2023-07-13T05:06:02;5.32;;;2.17;;
28844;SDS011;15976;47.938;7.758;2023-07-13T05:08:31;6.05;;;2.33;;
28844;SDS011;15976;47.938;7.758;2023-07-13T05:10:59;4.82;;;2.22;;
28844;SDS011;15976;47.938;7.758;2023-07-13T05:13:27;3.40;;;2.10;;
28844;SDS011;15976;47.938;7.758;2023-07-13T05:16:00;3.63;;;2.00;;
28844;SDS011;15976;47.938;7.758;2023-07-13T05:18:29;4.43;;;2.17;;
28844;SDS011;15976;47.938;7.758;2023-07-13T05:20:57;9.60;;;2.33;;
28844;SDS011;15976;47.938;7.758;2023-07-13T05:23:26;4.65;;;2.10;;
28844;SDS011;15976;47.938;7.758;2023-07-13T05:25:53;7.30;;;2.35;;
28844;SDS011;15976;47.938;7.758;2023-07-13T05:28:21;7.18;;;2.33;;
28844;SDS011;15976;47.938;7.758;2023-07-13T05:30:49;5.50;;;2.20;;
28844;SDS011;15976;47.938;7.758;2023-07-13T05:33:16;3.90;;;1.90;;
28844;SDS011;15976;47.938;7.758;2023-07-13T05:35:44;5.18;;;2.50;;
28844;SDS011;15976;47.938;7.758;2023-07-13T05:38:11;4.18;;;2.30;;
28844;SDS011;15976;47.938;7.758;2023-07-13T05:40:38;3.70;;;2.20;;
28844;SDS011;15976;47.938;7.758;2023-07-13T05:43:05;5.50;;;2.10;;
28844;SDS011;15976;47.938;7.758;2023-07-13T05:45:32;6.45;;;1.90;;
28844;SDS011;15976;47.938;7.758;2023-07-13T05:47:59;5.00;;;2.03;;
28844;SDS011;15976;47.938;7.758;2023-07-13T05:50:27;4.65;;;2.00;;
28844;SDS011;15976;47.938;7.758;2023-07-13T05:52:54;2.83;;;2.10;;
28844;SDS011;15976;47.938;7.758;2023-07-13T05:55:22;3.67;;;2.20;;
28844;SDS011;15976;47.938;7.758;2023-07-13T05:57:50;11.15;;;2.20;;
28844;SDS011;15976;47.938;7.758;2023-07-13T06:00:17;3.42;;;1.85;;
28844;SDS011;15976;47.938;7.758;2023-07-13T06:02:44;4.22;;;2.10;;
28844;SDS011;15976;47.938;7.758;2023-07-13T06:05:12;5.40;;;2.40;;
28844;SDS011;15976;47.938;7.758;2023-07-13T06:07:39;3.92;;;2.05;;
28844;SDS011;15976;47.938;7.758;2023-07-13T06:10:06;5.70;;;2.28;;
28844;SDS011;15976;47.938;7.758;2023-07-13T06:12:33;3.25;;;1.85;;
28844;SDS011;15976;47.938;7.758;2023-07-13T06:15:01;7.57;;;2.30;;
28844;SDS011;15976;47.938;7.758;2023-07-13T06:17:28;4.15;;;2.00;;
28844;SDS011;15976;47.938;7.758;2023-07-13T06:19:55;5.03;;;2.30;;
28844;SDS011;15976;47.938;7.758;2023-07-13T06:22:22;6.05;;;2.67;;
28844;SDS011;15976;47.938;7.758;2023-07-13T06:24:50;4.15;;;2.60;;
28844;SDS011;15976;47.938;7.758;2023-07-13T06:27:18;5.07;;;2.45;;
28844;SDS011;15976;47.938;7.758;2023-07-13T06:32:17;4.30;;;2.70;;
28844;SDS011;15976;47.938;7.758;2023-07-13T06:34:46;9.10;;;2.38;;
28844;SDS011;15976;47.938;7.758;2023-07-13T06:37:13;9.38;;;2.95;;
28844;SDS011;15976;47.938;7.758;2023-07-13T06:39:41;8.82;;;2.65;;
28844;SDS011;15976;47.938;7.758;2023-07-13T06:42:08;3.97;;;2.70;;
28844;SDS011;15976;47.938;7.758;2023-07-13T06:44:37;5.63;;;2.50;;
28844;SDS011;15976;47.938;7.758;2023-07-13T06:47:05;8.30;;;2.72;;
28844;SDS011;15976;47.938;7.758;2023-07-13T06:49:35;6.88;;;2.67;;
28844;SDS011;15976;47.938;7.758;2023-07-13T06:52:04;7.80;;;2.65;;
28844;SDS011;15976;47.938;7.758;2023-07-13T06:54:32;7.40;;;2.75;;
28844;SDS011;15976;47.938;7.758;2023-07-13T06:56:59;14.50;;;2.60;;
28844;SDS011;15976;47.938;7.758;2023-07-13T06:59:26;7.32;;;2.33;;
28844;SDS011;15976;47.938;7.758;2023-07-13T07:01:53;6.63;;;2.50;;
28844;SDS011;15976;47.938;7.758;2023-07-13T07:04:23;7.32;;;2.38;;
28844;SDS011;15976;47.938;7.758;2023-07-13T07:06:50;7.13;;;2.50;;
28844;SDS011;15976;47.938;7.758;2023-07-13T07:09:18;5.63;;;2.42;;
28844;SDS011;15976;47.938;7.758;2023-07-13T07:12:00;3.70;;;2.20;;
28844;SDS011;15976;47.938;7.758;2023-07-13T07:18:43;5.10;;;2.40;;
28844;SDS011;15976;47.938;7.758;2023-07-13T07:21:12;5.20;;;2.38;;
28844;SDS011;15976;47.938;7.758;2023-07-13T07:23:43;4.68;;;2.05;;
28844;SDS011;15976;47.938;7.758;2023-07-13T07:26:13;3.47;;;2.28;;
28844;SDS011;15976;47.938;7.758;2023-07-13T07:28:45;5.70;;;2.13;;
28844;SDS011;15976;47.938;7.758;2023-07-13T07:31:53;6.05;;;2.03;;
28844;SDS011;15976;47.938;7.758;2023-07-13T07:35:01;4.22;;;2.00;;
28844;SDS011;15976;47.938;7.758;2023-07-13T07:37:43;5.30;;;2.50;;
28844;SDS011;15976;47.938;7.758;2023-07-13T07:40:25;6.05;;;2.15;;
28844;SDS011;15976;47.938;7.758;2023-07-13T07:43:07;6.07;;;2.20;;
28844;SDS011;15976;47.938;7.758;2023-07-13T07:45:46;7.47;;;2.30;;
28844;SDS011;15976;47.938;7.758;2023-07-13T07:48:29;4.10;;;2.00;;
28844;SDS011;15976;47.938;7.758;2023-07-13T07:51:22;4.85;;;2.05;;
28844;SDS011;15976;47.938;7.758;2023-07-13T07:54:06;3.78;;;2.03;;
28844;SDS011;15976;47.938;7.758;2023-07-13T07:57:13;4.95;;;1.92;;
28844;SDS011;15976;47.938;7.758;2023-07-13T07:59:45;6.88;;;2.10;;
28844;SDS011;15976;47.938;7.758;2023-07-13T08:02:50;6.07;;;2.20;;
28844;SDS011;15976;47.938;7.758;2023-07-13T08:05:48;4.20;;;1.85;;
28844;SDS011;15976;47.938;7.758;2023-07-13T08:08:37;5.47;;;2.33;;
28844;SDS011;15976;47.938;7.758;2023-07-13T08:11:16;5.95;;;1.85;;
28844;SDS011;15976;47.938;7.758;2023-07-13T08:14:17;5.80;;;2.40;;
28844;SDS011;15976;47.938;7.758;2023-07-13T08:17:09;6.40;;;2.22;;
28844;SDS011;15976;47.938;7.758;2023-07-13T08:19:39;4.88;;;2.15;;
28844;SDS011;15976;47.938;7.758;2023-07-13T08:22:17;5.97;;;2.00;;
28844;SDS011;15976;47.938;7.758;2023-07-13T08:25:01;8.20;;;2.28;;
28844;SDS011;15976;47.938;7.758;2023-07-13T08:27:44;6.47;;;2.10;;
28844;SDS011;15976;47.938;7.758;2023-07-13T08:33:54;5.60;;;1.77;;
28844;SDS011;15976;47.938;7.758;2023-07-13T08:36:41;5.18;;;2.10;;
28844;SDS011;15976;47.938;7.758;2023-07-13T08:41:51;6.97;;;2.20;;
28844;SDS011;15976;47.938;7.758;2023-07-13T08:47:25;5.90;;;1.70;;
28844;SDS011;15976;47.938;7.758;2023-07-13T08:49:57;4.78;;;1.70;;
28844;SDS011;15976;47.938;7.758;2023-07-13T08:52:47;4.53;;;1.80;;
28844;SDS011;15976;47.938;7.758;2023-07-13T08:55:26;7.32;;;2.17;;
28844;SDS011;15976;47.938;7.758;2023-07-13T08:58:14;5.68;;;1.80;;
28844;SDS011;15976;47.938;7.758;2023-07-13T09:00:56;5.53;;;1.77;;
28844;SDS011;15976;47.938;7.758;2023-07-13T09:09:43;4.07;;;1.65;;
28844;SDS011;15976;47.938;7.758;2023-07-13T09:16:09;8.82;;;2.05;;
28844;SDS011;15976;47.938;7.758;2023-07-13T09:18:41;8.75;;;1.73;;
28844;SDS011;15976;47.938;7.758;2023-07-13T09:27:12;5.93;;;2.35;;
28844;SDS011;15976;47.938;7.758;2023-07-13T09:30:09;7.32;;;1.95;;
28844;SDS011;15976;47.938;7.758;2023-07-13T09:33:15;4.07;;;1.80;;
28844;SDS011;15976;47.938;7.758;2023-07-13T09:35:58;4.38;;;1.90;;
28844;SDS011;15976;47.938;7.758;2023-07-13T09:42:20;3.80;;;1.60;;
28844;SDS011;15976;47.938;7.758;2023-07-13T09:45:35;6.68;;;1.70;;
28844;SDS011;15976;47.938;7.758;2023-07-13T09:48:25;6.82;;;1.90;;
28844;SDS011;15976;47.938;7.758;2023-07-13T09:51:14;4.63;;;1.75;;
28844;SDS011;15976;47.938;7.758;2023-07-13T09:54:23;3.90;;;1.75;;
28844;SDS011;15976;47.938;7.758;2023-07-13T09:57:16;3.80;;;1.63;;
28844;SDS011;15976;47.938;7.758;2023-07-13T09:59:59;3.95;;;1.80;;
28844;SDS011;15976;47.938;7.758;2023-07-13T10:02:32;6.43;;;1.60;;
28844;SDS011;15976;47.938;7.758;2023-07-13T10:05:10;3.58;;;1.60;;
28844;SDS011;15976;47.938;7.758;2023-07-13T10:07:42;6.32;;;1.60;;
28844;SDS011;15976;47.938;7.758;2023-07-13T10:10:16;4.43;;;1.80;;
28844;SDS011;15976;47.938;7.758;2023-07-13T10:12:47;2.92;;;1.55;;
28844;SDS011;15976;47.938;7.758;2023-07-13T10:15:17;7.28;;;1.98;;
28844;SDS011;15976;47.938;7.758;2023-07-13T10:18:52;4.50;;;1.73;;
28844;SDS011;15976;47.938;7.758;2023-07-13T10:22:31;5.40;;;2.10;;
28844;SDS011;15976;47.938;7.758;2023-07-13T10:25:31;6.57;;;1.80;;
28844;SDS011;15976;47.938;7.758;2023-07-13T10:28:06;5.10;;;1.88;;
28844;SDS011;15976;47.938;7.758;2023-07-13T10:30:42;4.55;;;1.75;;
28844;SDS011;15976;47.938;7.758;2023-07-13T10:33:17;4.30;;;1.60;;
28844;SDS011;15976;47.938;7.758;2023-07-13T10:35:51;4.10;;;2.00;;
28844;SDS011;15976;47.938;7.758;2023-07-13T10:38:48;3.08;;;1.65;;
28844;SDS011;15976;47.938;7.758;2023-07-13T10:41:20;3.92;;;1.70;;
28844;SDS011;15976;47.938;7.758;2023-07-13T10:43:50;6.95;;;1.90;;
28844;SDS011;15976;47.938;7.758;2023-07-13T10:46:20;3.20;;;1.55;;
28844;SDS011;15976;47.938;7.758;2023-07-13T10:49:06;5.50;;;1.80;;
28844;SDS011;15976;47.938;7.758;2023-07-13T10:51:46;4.95;;;1.80;;
28844;SDS011;15976;47.938;7.758;2023-07-13T10:54:18;6.97;;;1.92;;
28844;SDS011;15976;47.938;7.758;2023-07-13T10:57:34;4.03;;;1.60;;
28844;SDS011;15976;47.938;7.758;2023-07-13T10:59:49;4.55;;;1.73;;
28844;SDS011;15976;47.938;7.758;2023-07-13T11:02:59;4.53;;;1.73;;
28844;SDS011;15976;47.938;7.758;2023-07-13T11:05:32;5.07;;;1.58;;
28844;SDS011;15976;47.938;7.758;2023-07-13T11:08:12;3.10;;;1.50;;
28844;SDS011;15976;47.938;7.758;2023-07-13T11:10:54;3.10;;;1.58;;
28844;SDS011;15976;47.938;7.758;2023-07-13T11:14:14;5.18;;;1.88;;
28844;SDS011;15976;47.938;7.758;2023-07-13T11:21:30;6.18;;;1.63;;
28844;SDS011;15976;47.938;7.758;2023-07-13T11:24:12;3.58;;;1.50;;
28844;SDS011;15976;47.938;7.758;2023-07-13T11:26:50;6.18;;;1.50;;
28844;SDS011;15976;47.938;7.758;2023-07-13T11:29:35;2.88;;;1.42;;
28844;SDS011;15976;47.938;7.758;2023-07-13T11:32:24;2.35;;;1.42;;
28844;SDS011;15976;47.938;7.758;2023-07-13T11:35:12;4.47;;;1.50;;
28844;SDS011;15976;47.938;7.758;2023-07-13T11:37:52;5.05;;;1.60;;
28844;SDS011;15976;47.938;7.758;2023-07-13T11:40:26;2.75;;;1.23;;
28844;SDS011;15976;47.938;7.758;2023-07-13T11:43:00;2.78;;;1.30;;
28844;SDS011;15976;47.938;7.758;2023-07-13T11:45:30;2.78;;;1.40;;
28844;SDS011;15976;47.938;7.758;2023-07-13T11:48:25;3.70;;;1.10;;
28844;SDS011;15976;47.938;7.758;2023-07-13T11:51:04;3.58;;;1.30;;
28844;SDS011;15976;47.938;7.758;2023-07-13T11:53:45;3.55;;;1.20;;
28844;SDS011;15976;47.938;7.758;2023-07-13T11:56:15;3.03;;;1.00;;
28844;SDS011;15976;47.938;7.758;2023-07-13T11:58:53;2.63;;;1.13;;
28844;SDS011;15976;47.938;7.758;2023-07-13T12:01:30;1.73;;;1.10;;
28844;SDS011;15976;47.938;7.758;2023-07-13T12:04:01;3.38;;;1.08;;
28844;SDS011;15976;47.938;7.758;2023-07-13T12:07:22;3.85;;;1.20;;
28844;SDS011;15976;47.938;7.758;2023-07-13T12:10:27;5.30;;;1.20;;
28844;SDS011;15976;47.938;7.758;2023-07-13T12:12:56;3.42;;;1.30;;
28844;SDS011;15976;47.938;7.758;2023-07-13T12:15:39;2.58;;;1.15;;
28844;SDS011;15976;47.938;7.758;2023-07-13T12:18:20;3.00;;;1.50;;
28844;SDS011;15976;47.938;7.758;2023-07-13T12:29:17;2.67;;;1.13;;
28844;SDS011;15976;47.938;7.758;2023-07-13T12:32:46;2.45;;;1.20;;
28844;SDS011;15976;47.938;7.758;2023-07-13T12:35:16;2.92;;;1.45;;
28844;SDS011;15976;47.938;7.758;2023-07-13T12:37:51;2.63;;;1.20;;
28844;SDS011;15976;47.938;7.758;2023-07-13T12:40:25;1.85;;;1.10;;
28844;SDS011;15976;47.938;7.758;2023-07-13T12:47:25;2.22;;;1.10;;
28844;SDS011;15976;47.938;7.758;2023-07-13T12:53:31;3.92;;;1.20;;
28844;SDS011;15976;47.938;7.758;2023-07-13T12:56:22;2.30;;;1.25;;
28844;SDS011;15976;47.938;7.758;2023-07-13T12:59:01;2.72;;;1.30;;
28844;SDS011;15976;47.938;7.758;2023-07-13T13:02:09;3.47;;;1.30;;
28844;SDS011;15976;47.938;7.758;2023-07-13T13:08:20;4.80;;;1.30;;
28844;SDS011;15976;47.938;7.758;2023-07-13T13:13:43;6.43;;;1.25;;
28844;SDS011;15976;47.938;7.758;2023-07-13T13:18:55;2.72;;;1.20;;
28844;SDS011;15976;47.938;7.758;2023-07-13T13:21:28;4.05;;;1.30;;
28844;SDS011;15976;47.938;7.758;2023-07-13T13:23:58;3.63;;;1.42;;
28844;SDS011;15976;47.938;7.758;2023-07-13T13:26:36;3.85;;;1.20;;
28844;SDS011;15976;47.938;7.758;2023-07-13T13:29:14;6.00;;;1.40;;
28844;SDS011;15976;47.938;7.758;2023-07-13T13:31:43;5.60;;;1.33;;
28844;SDS011;15976;47.938;7.758;2023-07-13T13:34:20;2.38;;;1.33;;
28844;SDS011;15976;47.938;7.758;2023-07-13T13:36:50;3.40;;;1.38;;
28844;SDS011;15976;47.938;7.758;2023-07-13T13:39:25;4.28;;;1.30;;
28844;SDS011;15976;47.938;7.758;2023-07-13T13:42:02;3.03;;;1.33;;
28844;SDS011;15976;47.938;7.758;2023-07-13T13:44:31;3.35;;;1.33;;
28844;SDS011;15976;47.938;7.758;2023-07-13T13:47:15;3.03;;;1.30;;
28844;SDS011;15976;47.938;7.758;2023-07-13T13:50:21;3.55;;;1.02;;
28844;SDS011;15976;47.938;7.758;2023-07-13T13:52:49;4.82;;;1.42;;
28844;SDS011;15976;47.938;7.758;2023-07-13T13:55:20;2.55;;;1.52;;
28844;SDS011;15976;47.938;7.758;2023-07-13T13:57:58;7.18;;;1.30;;
28844;SDS011;15976;47.938;7.758;2023-07-13T14:00:25;3.25;;;1.30;;
28844;SDS011;15976;47.938;7.758;2023-07-13T14:02:53;2.67;;;1.48;;
28844;SDS011;15976;47.938;7.758;2023-07-13T14:05:23;4.57;;;1.60;;
28844;SDS011;15976;47.938;7.758;2023-07-13T14:07:54;2.92;;;1.35;;
28844;SDS011;15976;47.938;7.758;2023-07-13T14:10:26;7.25;;;1.50;;
28844;SDS011;15976;47.938;7.758;2023-07-13T14:12:54;2.78;;;1.20;;
28844;SDS011;15976;47.938;7.758;2023-07-13T14:15:24;6.40;;;1.33;;
28844;SDS011;15976;47.938;7.758;2023-07-13T14:17:54;5.53;;;1.38;;
28844;SDS011;15976;47.938;7.758;2023-07-13T14:20:24;4.88;;;1.63;;
28844;SDS011;15976;47.938;7.758;2023-07-13T14:22:52;4.82;;;1.48;;
28844;SDS011;15976;47.938;7.758;2023-07-13T14:25:20;3.40;;;1.52;;
28844;SDS011;15976;47.938;7.758;2023-07-13T14:27:49;2.78;;;1.40;;
28844;SDS011;15976;47.938;7.758;2023-07-13T14:30:23;7.53;;;1.73;;
28844;SDS011;15976;47.938;7.758;2023-07-13T14:33:00;2.30;;;1.38;;
28844;SDS011;15976;47.938;7.758;2023-07-13T14:35:27;3.13;;;1.40;;
28844;SDS011;15976;47.938;7.758;2023-07-13T14:38:02;5.05;;;1.33;;
28844;SDS011;15976;47.938;7.758;2023-07-13T14:40:33;2.47;;;1.17;;
28844;SDS011;15976;47.938;7.758;2023-07-13T14:43:01;2.45;;;1.70;;
28844;SDS011;15976;47.938;7.758;2023-07-13T14:45:30;2.53;;;1.50;;
28844;SDS011;15976;47.938;7.758;2023-07-13T14:47:58;5.32;;;2.03;;
28844;SDS011;15976;47.938;7.758;2023-07-13T14:50:30;4.15;;;1.45;;
28844;SDS011;15976;47.938;7.758;2023-07-13T14:52:59;3.10;;;1.55;;
28844;SDS011;15976;47.938;7.758;2023-07-13T14:55:26;6.80;;;1.67;;
28844;SDS011;15976;47.938;7.758;2023-07-13T14:57:53;3.67;;;2.00;;
28844;SDS011;15976;47.938;7.758;2023-07-13T15:00:21;3.75;;;1.60;;
28844;SDS011;15976;47.938;7.758;2023-07-13T15:02:59;1.58;;;1.35;;
28844;SDS011;15976;47.938;7.758;2023-07-13T15:05:30;4.50;;;1.17;;
28844;SDS011;15976;47.938;7.758;2023-07-13T15:08:01;3.58;;;1.30;;
28844;SDS011;15976;47.938;7.758;2023-07-13T15:10:31;4.18;;;1.15;;
28844;SDS011;15976;47.938;7.758;2023-07-13T15:13:23;3.53;;;1.40;;
28844;SDS011;15976;47.938;7.758;2023-07-13T15:15:51;4.88;;;1.35;;
28844;SDS011;15976;47.938;7.758;2023-07-13T15:18:20;5.05;;;1.58;;
28844;SDS011;15976;47.938;7.758;2023-07-13T15:20:50;4.18;;;1.40;;
28844;SDS011;15976;47.938;7.758;2023-07-13T15:23:18;2.97;;;1.40;;
28844;SDS011;15976;47.938;7.758;2023-07-13T15:25:46;3.20;;;1.50;;
28844;SDS011;15976;47.938;7.758;2023-07-13T15:28:13;2.83;;;1.33;;
28844;SDS011;15976;47.938;7.758;2023-07-13T15:30:43;5.07;;;1.55;;
28844;SDS011;15976;47.938;7.758;2023-07-13T15:33:16;3.13;;;1.50;;
28844;SDS011;15976;47.938;7.758;2023-07-13T15:35:54;3.08;;;1.63;;
28844;SDS011;15976;47.938;7.758;2023-07-13T15:38:23;5.95;;;1.55;;
28844;SDS011;15976;47.938;7.758;2023-07-13T15:40:57;2.83;;;1.60;;
28844;SDS011;15976;47.938;7.758;2023-07-13T15:43:26;4.35;;;1.50;;
28844;SDS011;15976;47.938;7.758;2023-07-13T15:46:06;3.50;;;1.50;;
28844;SDS011;15976;47.938;7.758;2023-07-13T15:48:34;3.70;;;1.60;;
28844;SDS011;15976;47.938;7.758;2023-07-13T15:51:05;2.45;;;1.50;;
28844;SDS011;15976;47.938;7.758;2023-07-13T15:53:39;2.45;;;1.33;;
28844;SDS011;15976;47.938;7.758;2023-07-13T15:56:17;3.70;;;1.52;;
28844;SDS011;15976;47.938;7.758;2023-07-13T15:58:52;2.70;;;1.45;;
28844;SDS011;15976;47.938;7.758;2023-07-13T16:01:38;4.85;;;1.63;;
28844;SDS011;15976;47.938;7.758;2023-07-13T16:04:08;4.60;;;1.50;;
28844;SDS011;15976;47.938;7.758;2023-07-13T16:06:39;4.47;;;1.63;;
28844;SDS011;15976;47.938;7.758;2023-07-13T16:09:10;4.82;;;1.67;;
28844;SDS011;15976;47.938;7.758;2023-07-13T16:11:49;4.63;;;1.70;;
28844;SDS011;15976;47.938;7.758;2023-07-13T16:14:19;2.88;;;1.58;;
28844;SDS011;15976;47.938;7.758;2023-07-13T16:16:51;4.28;;;2.00;;
28844;SDS011;15976;47.938;7.758;2023-07-13T16:22:48;6.20;;;1.70;;
28844;SDS011;15976;47.938;7.758;2023-07-13T16:25:22;5.13;;;1.98;;
28844;SDS011;15976;47.938;7.758;2023-07-13T16:27:52;4.90;;;1.75;;
28844;SDS011;15976;47.938;7.758;2023-07-13T16:30:27;3.63;;;1.50;;
28844;SDS011;15976;47.938;7.758;2023-07-13T16:33:03;4.40;;;1.70;;
28844;SDS011;15976;47.938;7.758;2023-07-13T16:35:38;9.27;;;1.80;;
28844;SDS011;15976;47.938;7.758;2023-07-13T16:38:13;3.75;;;1.30;;
28844;SDS011;15976;47.938;7.758;2023-07-13T16:40:44;7.15;;;1.60;;